Pine City, Minnesota
Current Conditions -  °F | °C
As of 10:35 AM on Sunday 21 Dec 2014 (Local Time) from KROS Reporting Station
Haze Haze  
Wind Chill: 26°   Ceiling: 300
Heat Index: 32°   Visibility: 5mi
Dew Point: 32°   Wind: 7mph
Humidity: 99%   Direction: 130°SE
Pressure: 29.87"   Gusts: NA
Location:  45.83°N, 92.97°W
Report Text: KROS 211635Z AUTO 13006KT 5SM BR OVC003 00/00 A2987 RMK AO2 T00001002
Loading
Personal Weather Stations






























Interactive Weather Map New forecast layout! Learn more

10-Day Weather Forecast

Advertisements
Track Severe Weather on mobile